Time;durP1;ratioP1;P1;durP2;ratioP2;P2;SDS_P1;SDS_P2;PMS_P1;PMS_P2;Temp;Humidity;BMP_temperature;BMP_pressure;BME280_temperature;BME280_humidity;BME280_pressure;Samples;Min_cycle;Max_cycle;Signal;HPM_P1;HPM_P2
2021/04/06 00:02:07;;;;;;;3.78;0.88;;;;;;;4.76;96.54;102739.78;5053844;28;20047;-68
2021/04/06 00:04:39;;;;;;;9.85;1.23;;;;;;;4.78;97.35;102742.31;5053715;28;20036;-72
2021/04/06 00:07:09;;;;;;;6.05;2.17;;;;;;;4.80;98.56;102740.31;5053810;28;20083;-67
2021/04/06 00:09:36;;;;;;;6.82;1.50;;;;;;;4.83;100.00;102739.97;5053719;28;20032;-67
2021/04/06 00:12:04;;;;;;;7.78;2.55;;;;;;;4.84;99.69;102736.25;5053703;28;20518;-71
2021/04/06 00:14:32;;;;;;;5.45;1.00;;;;;;;4.84;97.43;102741.69;5053488;28;20090;-69
2021/04/06 00:17:00;;;;;;;4.68;1.30;;;;;;;4.83;97.36;102746.25;5052034;28;20529;-71
2021/04/06 00:19:30;;;;;;;6.95;1.50;;;;;;;4.84;98.02;102737.13;5053812;28;20448;-70
2021/04/06 00:22:00;;;;;;;15.35;1.77;;;;;;;4.87;97.80;102741.38;5053373;28;20431;-69
2021/04/06 00:24:30;;;;;;;6.15;1.30;;;;;;;4.90;97.56;102741.06;5053352;28;20082;-68
2021/04/06 00:27:10;;;;;;;6.00;1.73;;;;;;;4.94;97.80;102739.72;5053367;28;20033;-71
2021/04/06 00:29:38;;;;;;;7.15;1.50;;;;;;;4.98;98.85;102732.13;5053488;28;20033;-70
2021/04/06 00:32:06;;;;;;;5.97;1.60;;;;;;;5.03;98.82;102730.66;5053600;28;20052;-70
2021/04/06 00:34:33;;;;;;;7.32;1.40;;;;;;;5.09;96.01;102729.19;5052968;28;20456;-70
2021/04/06 00:37:07;;;;;;;8.23;1.75;;;;;;;5.13;95.79;102728.69;5053287;28;20041;-70
2021/04/06 00:39:35;;;;;;;9.75;1.98;;;;;;;5.17;96.61;102725.66;5053077;28;20029;-69
2021/04/06 00:42:07;;;;;;;9.75;1.23;;;;;;;5.18;96.41;102722.78;5053001;28;20048;-70
2021/04/06 00:44:41;;;;;;;5.90;1.20;;;;;;;5.21;96.62;102721.63;5053060;28;20029;-67
2021/04/06 00:47:09;;;;;;;5.68;1.10;;;;;;;5.22;97.92;102707.94;5051614;28;20403;-71
2021/04/06 00:49:36;;;;;;;12.80;1.80;;;;;;;5.25;97.74;102717.59;5052930;28;20066;-71
2021/04/06 00:52:04;;;;;;;7.88;1.38;;;;;;;5.27;97.81;102707.44;5052719;28;20040;-68
2021/04/06 00:54:33;;;;;;;5.57;1.40;;;;;;;5.30;98.88;102709.81;5052668;28;20037;-69
2021/04/06 00:56:59;;;;;;;5.97;1.13;;;;;;;5.30;99.25;102704.41;5052844;28;20128;-69
2021/04/06 00:59:25;;;;;;;9.27;1.40;;;;;;;5.30;99.45;102704.41;5052656;28;20411;-69
2021/04/06 01:01:59;;;;;;;7.00;1.70;;;;;;;5.30;98.19;102698.97;5052829;28;20041;-68
2021/04/06 01:04:28;;;;;;;11.05;2.42;;;;;;;5.28;98.28;102703.72;5052546;28;20044;-71
2021/04/06 01:07:18;;;;;;;7.45;2.22;;;;;;;5.27;97.58;102699.31;5052550;28;20048;-67
2021/04/06 01:10:05;;;;;;;6.45;1.45;;;;;;;5.29;97.98;102700.00;5052502;28;20051;-69
2021/04/06 01:12:31;;;;;;;10.68;1.73;;;;;;;5.31;99.05;102706.09;5052621;28;20124;-71
2021/04/06 01:14:57;;;;;;;7.28;1.45;;;;;;;5.32;98.89;102715.91;5052517;28;20132;-72
2021/04/06 01:17:33;;;;;;;9.57;1.60;;;;;;;5.33;100.00;102709.50;5052270;28;20172;-69
2021/04/06 01:20:05;;;;;;;7.72;1.33;;;;;;;5.33;100.00;102704.06;5052377;28;20090;-69
2021/04/06 01:22:31;;;;;;;6.50;1.05;;;;;;;5.34;99.77;102703.91;5052315;28;20032;-67
2021/04/06 01:24:56;;;;;;;6.50;1.67;;;;;;;5.37;100.00;102713.56;5052171;28;20036;-72
2021/04/06 01:27:22;;;;;;;7.30;1.45;;;;;;;5.37;99.38;102711.69;5052217;28;20390;-74
2021/04/06 01:29:54;;;;;;;10.18;1.25;;;;;;;5.39;98.68;102706.16;5052312;28;20091;-70
2021/04/06 01:32:20;;;;;;;7.68;1.10;;;;;;;5.40;97.55;102702.44;5052227;28;20032;-69
2021/04/06 01:34:47;;;;;;;5.68;1.58;;;;;;;5.39;98.77;102698.03;5052118;28;20041;-68
2021/04/06 01:37:17;;;;;;;8.02;2.13;;;;;;;5.41;99.50;102701.41;5052031;28;20152;-68
2021/04/06 01:39:44;;;;;;;6.78;1.30;;;;;;;5.41;99.02;102701.41;5052312;28;20049;-69
2021/04/06 01:42:13;;;;;;;11.95;2.10;;;;;;;5.42;99.70;102703.09;5051948;28;20048;-68
2021/04/06 01:44:41;;;;;;;7.70;1.30;;;;;;;5.43;100.00;102708.38;5051791;28;20044;-67
2021/04/06 01:47:12;;;;;;;7.43;1.92;;;;;;;5.43;100.00;102697.53;5051792;28;20041;-69
2021/04/06 01:49:39;;;;;;;8.25;1.20;;;;;;;5.43;100.00;102693.97;5051886;28;20051;-67
2021/04/06 01:52:05;;;;;;;13.65;1.55;;;;;;;5.43;100.00;102694.81;5051771;28;20033;-70
2021/04/06 01:54:33;;;;;;;8.02;1.20;;;;;;;5.39;100.00;102687.19;5051537;28;20029;-69
2021/04/06 01:57:07;;;;;;;6.07;1.10;;;;;;;5.35;100.00;102685.78;5051493;28;20037;-71
2021/04/06 01:59:37;;;;;;;10.55;1.40;;;;;;;5.29;100.00;102686.44;5051569;28;20037;-68
2021/04/06 02:02:03;;;;;;;6.45;1.02;;;;;;;5.27;100.00;102688.47;5051675;28;20048;-73
2021/04/06 02:04:30;;;;;;;8.23;1.88;;;;;;;5.26;100.00;102694.91;5051446;28;20044;-70
2021/04/06 02:07:01;;;;;;;12.38;2.35;;;;;;;5.23;100.00;102689.81;5051643;28;20094;-69
2021/04/06 02:09:27;;;;;;;7.70;1.35;;;;;;;5.22;100.00;102685.41;5051442;28;20517;-70
2021/04/06 02:11:53;;;;;;;8.95;2.10;;;;;;;5.20;100.00;102690.09;5051859;28;20703;-72
2021/04/06 02:14:23;;;;;;;6.68;1.65;;;;;;;5.18;100.00;102684.00;5051197;28;20064;-70
2021/04/06 02:16:56;;;;;;;5.63;1.80;;;;;;;5.15;100.00;102686.03;5051379;28;20032;-64
2021/04/06 02:19:38;;;;;;;10.40;2.97;;;;;;;5.14;100.00;102684.34;5050282;28;20387;-67
2021/04/06 02:22:06;;;;;;;7.93;1.83;;;;;;;5.14;100.00;102687.03;5051366;28;20037;-69
2021/04/06 02:24:45;;;;;;;8.60;1.65;;;;;;;5.13;100.00;102693.47;5051130;28;20493;-70
2021/04/06 02:27:18;;;;;;;11.63;1.95;;;;;;;5.10;100.00;102693.81;5051189;28;20060;-70
2021/04/06 02:29:52;;;;;;;14.23;1.80;;;;;;;5.11;100.00;102700.91;5051054;28;20039;-73
2021/04/06 02:32:24;;;;;;;11.88;1.73;;;;;;;5.09;100.00;102681.25;5051132;28;20053;-72
2021/04/06 02:34:52;;;;;;;11.15;1.60;;;;;;;5.10;100.00;102682.13;5051037;28;20055;-73
2021/04/06 02:37:26;;;;;;;7.93;1.65;;;;;;;5.08;100.00;102685.00;5050975;28;20040;-68
2021/04/06 02:39:55;;;;;;;6.20;1.48;;;;;;;5.08;100.00;102679.56;5051379;28;20426;-68
2021/04/06 02:42:33;;;;;;;11.65;1.42;;;;;;;5.07;100.00;102672.47;5050984;28;20025;-68
2021/04/06 02:45:12;;;;;;;10.15;1.70;;;;;;;5.06;100.00;102676.19;5050871;28;20142;-70
2021/04/06 02:47:41;;;;;;;10.05;1.40;;;;;;;5.07;100.00;102677.88;5050981;28;20119;-69
2021/04/06 02:50:13;;;;;;;10.60;2.22;;;;;;;5.08;100.00;102673.31;5050889;28;20043;-74
2021/04/06 02:52:39;;;;;;;12.15;1.88;;;;;;;5.08;100.00;102671.44;5050987;28;20029;-69
2021/04/06 02:55:07;;;;;;;10.32;1.15;;;;;;;5.06;100.00;102681.59;5049589;28;20082;-69
2021/04/06 02:57:33;;;;;;;13.38;1.90;;;;;;;5.04;100.00;102683.63;5050781;28;20609;-69
2021/04/06 02:59:59;;;;;;;6.53;1.15;;;;;;;5.00;100.00;102676.81;5050882;28;20041;-67
2021/04/06 03:02:25;;;;;;;6.80;1.42;;;;;;;4.99;100.00;102672.41;5050800;28;20445;-70
2021/04/06 03:04:51;;;;;;;7.50;1.52;;;;;;;4.95;100.00;102671.03;5050776;28;20410;-70
2021/04/06 03:07:16;;;;;;;7.63;1.90;;;;;;;4.91;100.00;102669.66;5051237;28;20390;-69
2021/04/06 03:09:52;;;;;;;12.50;2.22;;;;;;;4.87;100.00;102671.00;5052053;28;20382;-68
2021/04/06 03:12:17;;;;;;;7.20;1.70;;;;;;;4.83;100.00;102670.44;5055218;28;20029;-68
2021/04/06 03:14:46;;;;;;;9.73;1.92;;;;;;;4.79;100.00;102679.03;5054912;28;20114;-67
2021/04/06 03:17:12;;;;;;;9.55;2.10;;;;;;;4.77;100.00;102681.06;5054864;28;20578;-69
2021/04/06 03:19:38;;;;;;;8.73;1.60;;;;;;;4.73;100.00;102680.53;5054740;28;20132;-69
2021/04/06 03:22:06;;;;;;;7.95;1.55;;;;;;;4.73;100.00;102674.28;5054860;28;20131;-74
2021/04/06 03:24:33;;;;;;;13.43;1.77;;;;;;;4.67;100.00;102666.78;5055196;28;20029;-72
2021/04/06 03:27:03;;;;;;;9.57;1.42;;;;;;;4.65;100.00;102682.31;5054907;28;20043;-69
2021/04/06 03:29:30;;;;;;;13.10;1.92;;;;;;;4.62;100.00;102678.09;5054755;28;20037;-67
2021/04/06 03:31:57;;;;;;;10.57;1.45;;;;;;;4.61;100.00;102672.81;5054799;28;20605;-68
2021/04/06 03:34:29;;;;;;;9.23;1.15;;;;;;;4.59;100.00;102667.56;5053200;28;20056;-68
2021/04/06 03:36:55;;;;;;;11.65;1.50;;;;;;;4.57;100.00;102675.00;5054699;28;20037;-70
2021/04/06 03:39:20;;;;;;;10.07;1.50;;;;;;;4.55;100.00;102677.03;5054591;28;20041;-71
2021/04/06 03:41:46;;;;;;;10.85;1.60;;;;;;;4.53;100.00;102669.06;5054541;28;20139;-66
2021/04/06 03:44:13;;;;;;;10.73;1.98;;;;;;;4.53;100.00;102665.50;5054978;28;20395;-71
2021/04/06 03:46:41;;;;;;;11.05;1.40;;;;;;;4.52;100.00;102664.66;5054371;28;20044;-69
2021/04/06 03:49:12;;;;;;;11.93;1.67;;;;;;;4.51;100.00;102664.78;5054313;28;20394;-69
2021/04/06 03:51:47;;;;;;;10.10;2.63;;;;;;;4.49;100.00;102675.78;5054328;28;20383;-69
2021/04/06 03:54:34;;;;;;;11.20;1.70;;;;;;;4.47;100.00;102675.09;5054171;28;20040;-68
2021/04/06 03:57:19;;;;;;;8.98;2.03;;;;;;;4.46;100.00;102664.44;5054304;28;20036;-70
2021/04/06 03:59:44;;;;;;;10.90;1.90;;;;;;;4.43;100.00;102672.88;5054006;28;20391;-67
2021/04/06 04:02:11;;;;;;;11.15;2.03;;;;;;;4.40;100.00;102657.78;5054119;28;20495;-73
2021/04/06 04:04:38;;;;;;;10.55;1.52;;;;;;;4.38;100.00;102667.94;5053860;28;20072;-67
2021/04/06 04:07:04;;;;;;;11.70;1.85;;;;;;;4.35;100.00;102662.84;5053892;28;20406;-73
2021/04/06 04:09:30;;;;;;;12.40;1.70;;;;;;;4.32;100.00;102663.13;5053683;28;20033;-69
2021/04/06 04:11:55;;;;;;;8.55;1.60;;;;;;;4.30;100.00;102659.72;5053777;28;20106;-71
2021/04/06 04:14:21;;;;;;;15.50;2.20;;;;;;;4.28;100.00;102669.00;5053532;28;20041;-69
2021/04/06 04:16:46;;;;;;;7.70;1.52;;;;;;;4.24;100.00;102663.06;5053776;28;20045;-72
2021/04/06 04:19:12;;;;;;;9.65;2.13;;;;;;;4.20;100.00;102667.09;5053503;28;20086;-70
2021/04/06 04:21:38;;;;;;;10.35;1.70;;;;;;;4.17;100.00;102662.00;5053342;28;20041;-71
2021/04/06 04:24:04;;;;;;;7.10;1.95;;;;;;;4.13;100.00;102671.41;5053294;28;20041;-67
2021/04/06 04:26:30;;;;;;;9.73;1.50;;;;;;;4.12;100.00;102669.72;5053401;28;20049;-69
2021/04/06 04:28:55;;;;;;;16.73;3.10;;;;;;;4.09;100.00;102665.47;5053472;28;20041;-72
2021/04/06 04:31:21;;;;;;;11.82;1.92;;;;;;;4.07;100.00;102667.47;5053342;28;20056;-68
2021/04/06 04:33:47;;;;;;;8.15;2.50;;;;;;;4.08;100.00;102662.94;5053317;28;20052;-71
2021/04/06 04:36:12;;;;;;;12.10;1.52;;;;;;;4.07;100.00;102663.94;5053271;28;20033;-69
2021/04/06 04:38:38;;;;;;;13.68;2.97;;;;;;;4.07;100.00;102666.63;5053074;28;20041;-67
2021/04/06 04:41:04;;;;;;;9.30;1.73;;;;;;;4.07;100.00;102662.06;5053089;28;20055;-71
2021/04/06 04:43:29;;;;;;;13.07;1.80;;;;;;;4.08;100.00;102658.38;5051493;28;20079;-67
2021/04/06 04:45:56;;;;;;;8.25;1.55;;;;;;;4.09;100.00;102659.22;5053215;28;20049;-70
2021/04/06 04:48:21;;;;;;;8.35;1.27;;;;;;;4.09;100.00;102662.75;5052874;28;20072;-69
2021/04/06 04:50:47;;;;;;;13.68;2.80;;;;;;;4.11;100.00;102676.13;5053029;28;20098;-72
2021/04/06 04:53:13;;;;;;;7.93;1.58;;;;;;;4.11;100.00;102674.28;5051640;28;20403;-71
2021/04/06 04:55:39;;;;;;;12.55;2.35;;;;;;;4.12;100.00;102670.56;5052748;28;20040;-69
2021/04/06 04:58:04;;;;;;;13.73;2.50;;;;;;;4.13;100.00;102661.44;5052732;28;20051;-69
2021/04/06 05:00:30;;;;;;;5.90;1.17;;;;;;;4.13;100.00;102664.16;5052555;28;20047;-73
2021/04/06 05:02:56;;;;;;;9.63;1.90;;;;;;;4.13;100.00;102660.59;5052698;28;20032;-71
2021/04/06 05:05:21;;;;;;;11.95;2.05;;;;;;;4.11;100.00;102657.19;5051483;28;20092;-70
2021/04/06 05:07:47;;;;;;;14.45;3.78;;;;;;;4.09;100.00;102664.63;5052987;28;20032;-70
2021/04/06 05:10:16;;;;;;;8.85;1.77;;;;;;;4.09;100.00;102662.75;5052530;28;20041;-71
2021/04/06 05:12:42;;;;;;;7.97;1.70;;;;;;;4.10;100.00;102656.34;5052528;28;20146;-68
2021/04/06 05:15:09;;;;;;;11.68;1.83;;;;;;;4.13;100.00;102655.19;5052412;28;20493;-69
2021/04/06 05:17:35;;;;;;;11.43;1.85;;;;;;;4.13;100.00;102660.59;5052280;28;20068;-68
2021/04/06 05:20:02;;;;;;;10.68;1.83;;;;;;;4.13;100.00;102655.19;5052315;28;20048;-71
2021/04/06 05:22:28;;;;;;;10.93;1.58;;;;;;;4.11;100.00;102658.03;5052420;28;20037;-73
2021/04/06 05:24:54;;;;;;;7.38;1.83;;;;;;;4.11;100.00;102657.19;5052201;28;20051;-67
2021/04/06 05:27:19;;;;;;;12.07;2.67;;;;;;;4.10;100.00;102655.50;5052273;28;20106;-72
2021/04/06 05:29:45;;;;;;;15.00;2.75;;;;;;;4.05;100.00;102663.25;5052228;28;20086;-69
2021/04/06 05:32:11;;;;;;;19.60;2.28;;;;;;;4.04;100.00;102661.53;5051606;28;20040;-74
2021/04/06 05:34:36;;;;;;;8.77;1.85;;;;;;;4.03;100.00;102659.84;5052004;28;20128;-71
2021/04/06 05:37:02;;;;;;;6.85;1.92;;;;;;;4.01;100.00;102653.75;5052078;28;20041;-66
2021/04/06 05:39:28;;;;;;;10.25;1.90;;;;;;;3.99;100.00;102653.03;5051956;28;20140;-69
2021/04/06 05:41:54;;;;;;;9.68;1.92;;;;;;;3.97;100.00;102650.47;5052013;28;20116;-71
2021/04/06 05:44:20;;;;;;;11.73;2.30;;;;;;;3.97;100.00;102660.44;5052166;28;20045;-68
2021/04/06 05:46:47;;;;;;;15.10;1.50;;;;;;;3.95;100.00;102652.50;5051752;28;20479;-72
2021/04/06 05:49:20;;;;;;;13.32;2.92;;;;;;;3.94;100.00;102656.19;5051893;28;20095;-67
2021/04/06 05:51:45;;;;;;;8.60;2.15;;;;;;;3.92;100.00;102664.47;5051888;28;20033;-71
2021/04/06 05:54:13;;;;;;;10.52;1.92;;;;;;;3.93;100.00;102670.72;5051623;28;20510;-70
2021/04/06 05:56:39;;;;;;;7.60;1.63;;;;;;;3.89;100.00;102666.63;5051842;28;20439;-72
2021/04/06 05:59:06;;;;;;;10.80;2.20;;;;;;;3.87;100.00;102661.38;5051458;28;20502;-74
2021/04/06 06:01:36;;;;;;;12.80;1.85;;;;;;;3.86;100.00;102670.50;5050308;28;20029;-67
2021/04/06 06:04:02;;;;;;;9.68;1.67;;;;;;;3.84;100.00;102671.66;5050215;28;20067;-69
2021/04/06 06:06:28;;;;;;;9.43;2.10;;;;;;;3.83;100.00;102670.81;5051641;28;20032;-72
2021/04/06 06:08:59;;;;;;;14.52;2.58;;;;;;;3.84;100.00;102669.81;5051461;28;20398;-72
2021/04/06 06:11:25;;;;;;;11.70;1.90;;;;;;;3.85;100.00;102673.34;5051517;28;20063;-69
2021/04/06 06:13:51;;;;;;;7.65;2.35;;;;;;;3.85;100.00;102666.09;5051373;28;20033;-69
2021/04/06 06:16:23;;;;;;;8.00;1.90;;;;;;;3.85;100.00;102668.78;5051259;28;20033;-70
2021/04/06 06:19:04;;;;;;;6.53;1.92;;;;;;;3.87;100.00;102671.34;5051186;28;20129;-70
2021/04/06 06:21:53;;;;;;;10.60;2.40;;;;;;;3.87;100.00;102672.19;5051346;28;20043;-71
2021/04/06 06:24:29;;;;;;;10.35;2.00;;;;;;;3.88;100.00;102668.47;5051235;28;20063;-70
2021/04/06 06:26:59;;;;;;;9.85;2.55;;;;;;;3.88;100.00;102668.47;5051512;28;20428;-68
2021/04/06 06:29:31;;;;;;;9.00;1.90;;;;;;;3.88;100.00;102673.03;5051139;28;20040;-67
2021/04/06 06:31:59;;;;;;;13.82;2.17;;;;;;;3.88;100.00;102679.28;5051110;28;20379;-72
2021/04/06 06:34:29;;;;;;;8.68;2.33;;;;;;;3.88;100.00;102668.47;5050886;28;20037;-71
2021/04/06 06:37:06;;;;;;;25.23;3.47;;;;;;;3.89;100.00;102670.19;5032956;28;20032;-70
2021/04/06 06:39:34;;;;;;;10.68;2.22;;;;;;;3.90;100.00;102661.06;5050950;28;20538;-72
2021/04/06 06:42:09;;;;;;;9.35;2.20;;;;;;;3.93;100.00;102671.56;5051111;28;20044;-73
2021/04/06 06:44:37;;;;;;;12.18;1.80;;;;;;;3.97;100.00;102668.53;5050018;28;20116;-68
2021/04/06 06:47:24;;;;;;;5.30;1.90;;;;;;;4.01;100.00;102678.06;5050827;28;20045;-67
2021/04/06 06:49:53;;;;;;;7.57;1.95;;;;;;;4.03;100.00;102676.06;5050776;28;20479;-69
2021/04/06 06:52:21;;;;;;;8.88;1.77;;;;;;;4.10;100.00;102661.75;5050815;28;20040;-69
2021/04/06 06:54:51;;;;;;;7.22;1.83;;;;;;;4.15;100.00;102658.56;5050780;28;20471;-68
2021/04/06 06:57:25;;;;;;;11.95;2.30;;;;;;;4.20;100.00;102662.53;5050874;28;20108;-70
2021/04/06 06:59:51;;;;;;;8.35;1.70;;;;;;;4.22;100.00;102660.53;5050687;28;20121;-67
2021/04/06 07:02:28;;;;;;;11.23;3.08;;;;;;;4.29;100.00;102659.88;5050801;28;20048;-67
2021/04/06 07:05:08;;;;;;;11.30;2.10;;;;;;;4.35;100.00;102668.25;5050585;28;20047;-68
2021/04/06 07:07:53;;;;;;;19.67;2.05;;;;;;;4.42;100.00;102661.19;5050693;28;20483;-67
2021/04/06 07:10:23;;;;;;;12.20;1.88;;;;;;;4.47;100.00;102664.25;5050665;28;20037;-67
2021/04/06 07:12:57;;;;;;;7.38;1.55;;;;;;;4.53;100.00;102674.47;5050632;28;20047;-70
2021/04/06 07:15:23;;;;;;;17.75;2.17;;;;;;;4.65;100.00;102671.50;5050554;28;20063;-72
2021/04/06 07:17:50;;;;;;;12.40;2.25;;;;;;;4.73;100.00;102668.88;5050568;28;20037;-71
2021/04/06 07:20:20;;;;;;;7.60;1.65;;;;;;;4.80;100.00;102664.50;5050571;28;20044;-68
2021/04/06 07:22:47;;;;;;;14.40;1.58;;;;;;;4.81;100.00;102671.63;5050446;28;20032;-70
2021/04/06 07:25:14;;;;;;;8.80;1.80;;;;;;;4.84;100.00;102666.72;5050708;28;20070;-67
2021/04/06 07:27:43;;;;;;;10.60;1.67;;;;;;;4.84;100.00;102677.56;5050562;28;20068;-69
2021/04/06 07:30:13;;;;;;;10.80;1.88;;;;;;;4.88;100.00;102672.69;5049818;28;20554;-68
2021/04/06 07:32:42;;;;;;;11.18;1.55;;;;;;;4.88;100.00;102677.25;5049898;28;20036;-69
2021/04/06 07:35:09;;;;;;;6.70;1.55;;;;;;;4.95;100.00;102676.44;5050188;28;20040;-66
2021/04/06 07:37:44;;;;;;;9.82;2.10;;;;;;;5.11;100.00;102672.97;5049396;28;20068;-66
2021/04/06 07:40:14;;;;;;;10.07;1.85;;;;;;;5.19;100.00;102680.28;5049391;28;20462;-68
2021/04/06 07:42:43;;;;;;;10.55;1.85;;;;;;;5.25;100.00;102671.53;5049419;28;20060;-65
2021/04/06 07:45:21;;;;;;;14.55;2.22;;;;;;;5.36;100.00;102673.94;5048601;28;20028;-67
2021/04/06 07:47:48;;;;;;;9.18;1.80;;;;;;;5.47;100.00;102672.81;5048635;28;20053;-67
2021/04/06 07:50:32;;;;;;;4.43;1.52;;;;;;;5.57;100.00;102685.22;5049502;28;20115;-70
2021/04/06 07:53:30;;;;;;;10.45;1.75;;;;;;;5.65;100.00;102690.66;5049436;28;20379;-69
2021/04/06 07:55:59;;;;;;;10.63;2.22;;;;;;;5.68;100.00;102676.75;5041718;28;20098;-68
2021/04/06 07:58:44;;;;;;;4.97;1.70;;;;;;;5.78;100.00;102686.63;5044460;28;20048;-69
2021/04/06 08:01:11;;;;;;;5.30;1.60;;;;;;;5.89;100.00;102686.28;5042083;28;20068;-65
2021/04/06 08:03:57;;;;;;;11.18;2.67;;;;;;;6.03;100.00;102680.25;5053509;28;20459;-69
2021/04/06 08:06:25;;;;;;;9.68;2.60;;;;;;;6.15;100.00;102684.34;5042526;28;20546;-67
2021/04/06 08:08:51;;;;;;;9.32;2.10;;;;;;;6.23;100.00;102680.78;5049997;28;20044;-68
2021/04/06 08:11:17;;;;;;;9.23;1.70;;;;;;;6.29;100.00;102675.56;5053181;28;20037;-69
2021/04/06 08:13:44;;;;;;;8.20;1.70;;;;;;;6.39;100.00;102688.09;5052754;28;20598;-69
2021/04/06 08:16:17;;;;;;;10.88;2.17;;;;;;;6.45;100.00;102684.72;5053019;28;20064;-67
2021/04/06 08:18:52;;;;;;;6.88;1.20;;;;;;;6.52;100.00;102686.56;5052821;28;20033;-68
2021/04/06 08:21:25;;;;;;;4.82;1.30;;;;;;;6.61;100.00;102677.41;5052004;28;20045;-68
2021/04/06 08:23:52;;;;;;;7.80;1.38;;;;;;;6.64;100.00;102684.38;5053390;28;20434;-68
2021/04/06 08:26:35;;;;;;;9.63;1.50;;;;;;;6.74;100.00;102679.59;5053137;28;20037;-70
2021/04/06 08:29:33;;;;;;;4.30;1.20;;;;;;;6.88;100.00;102676.16;5067526;28;20075;-68
2021/04/06 08:32:16;;;;;;;6.63;2.13;;;;;;;7.02;100.00;102676.50;5063393;28;20052;-67
2021/04/06 08:35:07;;;;;;;6.22;1.20;;;;;;;7.09;100.00;102677.47;5063953;28;20044;-72
2021/04/06 08:37:37;;;;;;;8.32;1.20;;;;;;;7.16;100.00;102670.34;5052071;28;20052;-63
2021/04/06 08:40:09;;;;;;;10.60;1.30;;;;;;;7.12;99.34;102671.72;5047504;28;20029;-70
2021/04/06 08:42:36;;;;;;;8.45;1.90;;;;;;;7.13;100.00;102666.09;5042106;28;20037;-70
2021/04/06 08:45:03;;;;;;;9.25;1.77;;;;;;;7.15;100.00;102669.50;5034237;28;20453;-70
2021/04/06 08:47:39;;;;;;;15.15;1.13;;;;;;;7.24;100.00;102675.72;5032943;28;20479;-66
2021/04/06 08:50:10;;;;;;;6.03;1.23;;;;;;;7.20;100.00;102658.94;5032962;28;20438;-68
2021/04/06 08:52:37;;;;;;;7.00;1.13;;;;;;;7.29;97.50;102657.06;5032990;28;20052;-67
2021/04/06 08:55:15;;;;;;;5.68;0.88;;;;;;;7.47;98.06;102657.66;5032880;28;20124;-66
2021/04/06 08:57:41;;;;;;;11.98;1.60;;;;;;;7.54;97.62;102661.34;5032852;28;20060;-70
2021/04/06 09:00:11;;;;;;;3.30;0.90;;;;;;;7.62;93.20;102651.44;5031563;28;20391;-67
2021/04/06 09:02:36;;;;;;;6.55;0.93;;;;;;;7.70;92.20;102643.25;5032839;28;20116;-70
2021/04/06 09:05:03;;;;;;;5.93;1.60;;;;;;;7.68;90.76;102657.03;5033604;28;20124;-67
2021/04/06 09:07:31;;;;;;;8.02;1.38;;;;;;;7.70;90.69;102654.13;5051705;28;20041;-68
2021/04/06 09:09:59;;;;;;;7.72;0.95;;;;;;;7.82;88.20;102647.25;5052551;28;20490;-66
2021/04/06 09:12:25;;;;;;;6.40;1.15;;;;;;;7.99;90.31;102658.88;5052572;28;20119;-68
2021/04/06 09:14:51;;;;;;;5.13;1.25;;;;;;;8.10;90.09;102656.56;5052390;28;20040;-69
2021/04/06 09:17:18;;;;;;;8.05;1.10;;;;;;;8.28;86.36;102641.78;5052470;28;20037;-72
2021/04/06 09:19:46;;;;;;;8.55;0.90;;;;;;;8.36;82.49;102656.25;5052300;28;20029;-75
2021/04/06 09:22:14;;;;;;;7.43;1.05;;;;;;;8.49;79.86;102650.16;5052481;28;20041;-70
2021/04/06 09:24:41;;;;;;;5.85;1.00;;;;;;;8.67;82.61;102650.66;5052201;28;20171;-71
2021/04/06 09:27:08;;;;;;;4.93;1.10;;;;;;;8.76;75.52;102646.81;5052218;28;20044;-70
2021/04/06 09:29:36;;;;;;;6.25;0.75;;;;;;;8.79;71.84;102655.66;5052206;28;20446;-71
2021/04/06 09:32:08;;;;;;;6.35;0.95;;;;;;;8.82;70.47;102658.00;5052166;28;20033;-69
2021/04/06 09:34:40;;;;;;;2.97;1.02;;;;;;;8.90;70.93;102647.03;5052114;28;20044;-75
2021/04/06 09:37:43;;;;;;;6.95;1.73;;;;;;;9.02;70.00;102651.84;5052296;28;20037;-71
2021/04/06 09:40:09;;;;;;;7.30;0.88;;;;;;;9.29;74.34;102642.13;5051867;28;20052;-67
2021/04/06 09:42:35;;;;;;;2.70;0.77;;;;;;;9.44;74.83;102631.22;5051898;28;20135;-66
2021/04/06 09:45:03;;;;;;;4.65;1.17;;;;;;;9.42;68.31;102646.94;5051892;28;20052;-66
2021/04/06 09:47:35;;;;;;;7.10;1.02;;;;;;;9.18;67.33;102645.31;5050029;28;20139;-68
2021/04/06 09:50:04;;;;;;;2.13;0.80;;;;;;;8.84;67.09;102647.75;5051698;28;20459;-67
2021/04/06 09:52:29;;;;;;;4.28;0.85;;;;;;;8.74;70.13;102648.91;5051686;28;20073;-69
2021/04/06 09:54:58;;;;;;;3.67;0.80;;;;;;;8.87;71.32;102641.97;5051597;28;20069;-67
2021/04/06 09:57:26;;;;;;;6.68;0.98;;;;;;;8.87;68.08;102631.06;5051632;28;20470;-68
2021/04/06 09:59:55;;;;;;;4.63;0.77;;;;;;;9.09;69.33;102623.81;5051441;28;20395;-69
2021/04/06 10:02:23;;;;;;;4.22;0.98;;;;;;;9.10;66.23;102634.53;5051525;28;20094;-71
2021/04/06 10:04:51;;;;;;;6.93;0.80;;;;;;;8.99;68.01;102624.09;5051284;28;20033;-67
2021/04/06 10:07:18;;;;;;;3.60;0.85;;;;;;;8.84;69.84;102634.97;5051696;28;20441;-69
2021/04/06 10:10:02;;;;;;;5.13;0.90;;;;;;;8.72;68.07;102640.06;5051232;28;20076;-68
2021/04/06 10:12:30;;;;;;;8.52;1.65;;;;;;;8.70;64.67;102631.25;5051426;28;20044;-67
2021/04/06 10:14:57;;;;;;;2.53;0.75;;;;;;;8.55;65.01;102627.63;5051325;28;20043;-68
2021/04/06 10:17:34;;;;;;;4.97;0.70;;;;;;;8.55;68.38;102634.97;5051276;28;20442;-67
2021/04/06 10:20:07;;;;;;;4.93;0.85;;;;;;;8.51;68.88;102631.78;5049527;28;20403;-67
2021/04/06 10:22:39;;;;;;;5.13;1.10;;;;;;;8.62;68.52;102634.03;5051323;28;20037;-67
2021/04/06 10:25:06;;;;;;;4.78;0.88;;;;;;;8.69;71.47;102629.56;5051176;28;20086;-70
2021/04/06 10:27:41;;;;;;;4.05;0.70;;;;;;;8.87;69.51;102625.63;5051072;28;20068;-67
2021/04/06 10:30:13;;;;;;;3.85;0.60;;;;;;;8.93;72.96;102613.97;5051041;28;20032;-68
2021/04/06 10:32:47;;;;;;;3.60;1.00;;;;;;;8.96;73.25;102621.75;5050937;28;20040;-66
2021/04/06 10:35:27;;;;;;;4.57;0.70;;;;;;;8.97;74.01;102615.25;5051086;28;20044;-71
2021/04/06 10:37:55;;;;;;;4.57;0.90;;;;;;;8.97;72.19;102601.63;5050973;28;20115;-69
2021/04/06 10:40:33;;;;;;;7.95;1.00;;;;;;;9.08;72.87;102612.06;5051057;28;20043;-68
2021/04/06 10:43:18;;;;;;;3.90;1.10;;;;;;;9.39;68.31;102602.81;5049548;28;20059;-69
2021/04/06 10:45:50;;;;;;;3.47;0.60;;;;;;;9.69;60.30;102604.41;5050936;28;20037;-70
2021/04/06 10:48:22;;;;;;;5.30;0.93;;;;;;;10.02;62.21;102601.19;5050764;28;20430;-67
2021/04/06 10:50:52;;;;;;;4.53;0.70;;;;;;;10.40;59.15;102602.59;5050898;28;20033;-71
2021/04/06 10:53:33;;;;;;;6.03;0.93;;;;;;;10.47;60.38;102595.31;5050683;28;20135;-68
2021/04/06 10:56:01;;;;;;;4.82;0.77;;;;;;;10.45;58.38;102599.28;5050828;28;20033;-71
2021/04/06 10:58:30;;;;;;;4.00;0.93;;;;;;;10.00;57.30;102597.81;5050835;28;20391;-67
2021/04/06 11:01:03;;;;;;;4.93;0.93;;;;;;;9.63;58.68;102599.75;5050760;28;20041;-70
2021/04/06 11:03:37;;;;;;;4.53;1.02;;;;;;;9.44;64.92;102605.81;5050624;28;20072;-70
2021/04/06 11:06:33;;;;;;;7.78;1.35;;;;;;;9.30;69.96;102589.28;5050640;28;20391;-69
2021/04/06 11:09:09;;;;;;;8.60;1.45;;;;;;;9.22;71.69;102599.47;5047480;28;20116;-68
2021/04/06 11:11:35;;;;;;;7.47;2.05;;;;;;;9.16;72.95;102587.41;5040653;28;20040;-70
2021/04/06 11:14:07;;;;;;;6.90;1.27;;;;;;;9.07;70.72;102592.16;5041526;28;20075;-66
2021/04/06 11:16:33;;;;;;;5.60;0.85;;;;;;;8.89;66.53;102590.84;5049508;28;20383;-65
2021/04/06 11:19:13;;;;;;;4.43;0.80;;;;;;;8.75;67.41;102597.97;5044252;28;20033;-66
2021/04/06 11:21:41;;;;;;;4.55;1.00;;;;;;;9.05;67.95;102593.38;5050487;28;20102;-68
2021/04/06 11:24:08;;;;;;;3.10;0.80;;;;;;;9.51;70.56;102579.44;5048463;28;20071;-63
2021/04/06 11:26:34;;;;;;;6.10;0.90;;;;;;;9.96;68.95;102579.09;5049526;28;20055;-66
2021/04/06 11:29:00;;;;;;;5.65;1.10;;;;;;;10.45;62.99;102582.91;5046532;28;20029;-63
2021/04/06 11:31:27;;;;;;;2.67;0.70;;;;;;;10.31;58.48;102576.50;5052209;28;20052;-67
2021/04/06 11:33:54;;;;;;;3.28;0.50;;;;;;;9.85;59.61;102568.69;5052661;28;20140;-67
2021/04/06 11:36:19;;;;;;;5.68;0.70;;;;;;;9.82;64.41;102577.28;5054208;28;20036;-68
2021/04/06 11:38:46;;;;;;;3.08;0.50;;;;;;;9.68;66.27;102575.44;5052720;28;20426;-67